sensor_id;sensor_type;location;lat;lon;timestamp;pressure;altitude;pressure_sealevel;temperature;humidity
50057;BME280;36875;49.468;11.200;2023-05-29T00:00:16;98045.19;;;20.56;38.17
50057;BME280;36875;49.468;11.200;2023-05-29T00:02:44;98036.97;;;20.56;38.21
50057;BME280;36875;49.468;11.200;2023-05-29T00:05:11;98045.19;;;20.56;38.05
50057;BME280;36875;49.468;11.200;2023-05-29T00:07:37;98040.84;;;20.55;38.00
50057;BME280;36875;49.468;11.200;2023-05-29T00:10:04;98044.38;;;20.56;38.23
50057;BME280;36875;49.468;11.200;2023-05-29T00:12:29;98043.56;;;20.55;38.22
50057;BME280;36875;49.468;11.200;2023-05-29T00:14:55;98037.63;;;20.53;38.01
50057;BME280;36875;49.468;11.200;2023-05-29T00:17:20;98041.94;;;20.54;38.13
50057;BME280;36875;49.468;11.200;2023-05-29T00:19:46;98028.41;;;20.49;38.44
50057;BME280;36875;49.468;11.200;2023-05-29T00:22:13;98043.88;;;20.54;38.67
50057;BME280;36875;49.468;11.200;2023-05-29T00:24:39;98045.81;;;20.53;38.12
50057;BME280;36875;49.468;11.200;2023-05-29T00:27:04;98042.25;;;20.53;38.42
50057;BME280;36875;49.468;11.200;2023-05-29T00:29:30;98043.88;;;20.54;38.06
50057;BME280;36875;49.468;11.200;2023-05-29T00:31:56;98040.34;;;20.53;38.33
50057;BME280;36875;49.468;11.200;2023-05-29T00:34:22;98040.34;;;20.53;38.47
50057;BME280;36875;49.468;11.200;2023-05-29T00:36:48;98039.53;;;20.53;38.48
50057;BME280;36875;49.468;11.200;2023-05-29T00:39:15;98028.91;;;20.51;38.38
50057;BME280;36875;49.468;11.200;2023-05-29T00:41:41;98036.00;;;20.52;38.39
50057;BME280;36875;49.468;11.200;2023-05-29T00:44:06;98027.00;;;20.52;38.58
50057;BME280;36875;49.468;11.200;2023-05-29T00:46:32;98029.72;;;20.52;38.38
50057;BME280;36875;49.468;11.200;2023-05-29T00:48:58;98021.34;;;20.48;38.52
50057;BME280;36875;49.468;11.200;2023-05-29T00:51:25;98031.66;;;20.51;38.68
50057;BME280;36875;49.468;11.200;2023-05-29T00:53:52;98038.72;;;20.52;38.68
50057;BME280;36875;49.468;11.200;2023-05-29T00:56:19;98038.72;;;20.52;38.50
50057;BME280;36875;49.468;11.200;2023-05-29T00:58:46;98036.28;;;20.51;38.63
50057;BME280;36875;49.468;11.200;2023-05-29T01:01:13;98038.22;;;20.50;38.52
50057;BME280;36875;49.468;11.200;2023-05-29T01:03:39;98037.13;;;20.51;38.84
50057;BME280;36875;49.468;11.200;2023-05-29T01:06:05;98037.75;;;20.48;38.32
50057;BME280;36875;49.468;11.200;2023-05-29T01:08:31;98051.91;;;20.50;38.64
50057;BME280;36875;49.468;11.200;2023-05-29T01:11:00;98054.63;;;20.50;38.84
50057;BME280;36875;49.468;11.200;2023-05-29T01:13:34;98028.66;;;20.39;38.68
50057;BME280;36875;49.468;11.200;2023-05-29T01:16:07;98047.53;;;20.49;38.88
50057;BME280;36875;49.468;11.200;2023-05-29T01:18:39;98036.75;;;20.44;38.70
50057;BME280;36875;49.468;11.200;2023-05-29T01:21:11;98036.59;;;20.49;38.67
50057;BME280;36875;49.468;11.200;2023-05-29T01:24:02;98038.53;;;20.49;38.83
50057;BME280;36875;49.468;11.200;2023-05-29T01:26:41;98038.53;;;20.49;38.64
50057;BME280;36875;49.468;11.200;2023-05-29T01:29:13;98026.31;;;20.46;38.46
50057;BME280;36875;49.468;11.200;2023-05-29T01:31:39;98039.34;;;20.49;38.80
50057;BME280;36875;49.468;11.200;2023-05-29T01:34:06;98035.81;;;20.49;38.83
50057;BME280;36875;49.468;11.200;2023-05-29T01:36:31;98041.56;;;20.47;38.90
50057;BME280;36875;49.468;11.200;2023-05-29T01:38:59;98029.53;;;20.48;38.74
50057;BME280;36875;49.468;11.200;2023-05-29T01:41:25;98039.34;;;20.49;38.91
50057;BME280;36875;49.468;11.200;2023-05-29T01:43:53;98031.47;;;20.48;39.12
50057;BME280;36875;49.468;11.200;2023-05-29T01:46:20;98030.63;;;20.47;38.82
50057;BME280;36875;49.468;11.200;2023-05-29T01:48:46;98035.00;;;20.48;38.87
50057;BME280;36875;49.468;11.200;2023-05-29T01:51:12;98028.72;;;20.48;39.24
50057;BME280;36875;49.468;11.200;2023-05-29T01:53:38;98027.91;;;20.47;38.83
50057;BME280;36875;49.468;11.200;2023-05-29T01:56:05;98024.06;;;20.48;38.91
50057;BME280;36875;49.468;11.200;2023-05-29T01:58:32;98026.31;;;20.46;39.13
50057;BME280;36875;49.468;11.200;2023-05-29T02:01:01;98022.59;;;20.42;38.79
50057;BME280;36875;49.468;11.200;2023-05-29T02:03:27;98031.47;;;20.48;39.17
50057;BME280;36875;49.468;11.200;2023-05-29T02:05:55;98030.16;;;20.45;39.24
50057;BME280;36875;49.468;11.200;2023-05-29T02:08:21;98020.00;;;20.46;39.27
50057;BME280;36875;49.468;11.200;2023-05-29T02:10:46;98020.84;;;20.46;38.88
50057;BME280;36875;49.468;11.200;2023-05-29T02:13:12;98019.22;;;20.45;39.09
50057;BME280;36875;49.468;11.200;2023-05-29T02:15:37;98015.38;;;20.46;38.81
50057;BME280;36875;49.468;11.200;2023-05-29T02:18:04;98020.34;;;20.44;39.06
50057;BME280;36875;49.468;11.200;2023-05-29T02:20:30;98018.72;;;20.43;39.01
50057;BME280;36875;49.468;11.200;2023-05-29T02:22:55;98012.16;;;20.44;39.19
50057;BME280;36875;49.468;11.200;2023-05-29T02:25:20;98010.53;;;20.43;38.97
50057;BME280;36875;49.468;11.200;2023-05-29T02:27:46;98011.97;;;20.40;39.04
50057;BME280;36875;49.468;11.200;2023-05-29T02:30:12;98007.78;;;20.43;39.04
50057;BME280;36875;49.468;11.200;2023-05-29T02:32:37;98008.94;;;20.42;39.01
50057;BME280;36875;49.468;11.200;2023-05-29T02:35:04;98006.19;;;20.42;39.24
50057;BME280;36875;49.468;11.200;2023-05-29T02:37:30;98010.03;;;20.41;38.96
50057;BME280;36875;49.468;11.200;2023-05-29T02:39:55;98011.66;;;20.42;39.31
50057;BME280;36875;49.468;11.200;2023-05-29T02:42:21;98008.94;;;20.42;39.49
50057;BME280;36875;49.468;11.200;2023-05-29T02:44:46;98008.09;;;20.41;38.97
50057;BME280;36875;49.468;11.200;2023-05-29T02:47:12;98005.66;;;20.40;39.29
50057;BME280;36875;49.468;11.200;2023-05-29T02:49:40;98005.34;;;20.41;39.09
50057;BME280;36875;49.468;11.200;2023-05-29T02:52:07;98005.19;;;20.38;39.15
50057;BME280;36875;49.468;11.200;2023-05-29T02:54:32;98005.19;;;20.38;39.02
50057;BME280;36875;49.468;11.200;2023-05-29T02:56:58;98002.44;;;20.38;39.29
50057;BME280;36875;49.468;11.200;2023-05-29T02:59:23;98003.28;;;20.38;39.34
50057;BME280;36875;49.468;11.200;2023-05-29T03:01:49;98005.19;;;20.38;39.32
50057;BME280;36875;49.468;11.200;2023-05-29T03:04:14;97998.59;;;20.39;39.38
50057;BME280;36875;49.468;11.200;2023-05-29T03:06:40;98002.13;;;20.39;39.25
50057;BME280;36875;49.468;11.200;2023-05-29T03:09:07;98010.34;;;20.39;39.34
50057;BME280;36875;49.468;11.200;2023-05-29T03:11:33;98008.75;;;20.38;39.20
50057;BME280;36875;49.468;11.200;2023-05-29T03:14:01;98008.56;;;20.35;39.31
50057;BME280;36875;49.468;11.200;2023-05-29T03:16:26;98012.28;;;20.39;39.15
50057;BME280;36875;49.468;11.200;2023-05-29T03:18:54;98010.63;;;20.38;39.08
50057;BME280;36875;49.468;11.200;2023-05-29T03:21:20;98013.69;;;20.36;39.25
50057;BME280;36875;49.468;11.200;2023-05-29T03:23:46;98009.03;;;20.37;39.22
50057;BME280;36875;49.468;11.200;2023-05-29T03:26:13;98012.88;;;20.36;39.50
50057;BME280;36875;49.468;11.200;2023-05-29T03:28:38;98016.75;;;20.35;39.66
50057;BME280;36875;49.468;11.200;2023-05-29T03:31:04;98011.78;;;20.37;39.40
50057;BME280;36875;49.468;11.200;2023-05-29T03:33:30;98020.28;;;20.35;39.10
50057;BME280;36875;49.468;11.200;2023-05-29T03:35:55;98013.69;;;20.36;39.46
50057;BME280;36875;49.468;11.200;2023-05-29T03:38:21;98011.78;;;20.37;39.36
50057;BME280;36875;49.468;11.200;2023-05-29T03:40:47;98010.94;;;20.36;39.19
50057;BME280;36875;49.468;11.200;2023-05-29T03:43:14;98022.22;;;20.35;39.43
50057;BME280;36875;49.468;11.200;2023-05-29T03:45:39;98017.53;;;20.35;39.55
50057;BME280;36875;49.468;11.200;2023-05-29T03:48:05;98020.28;;;20.35;39.40
50057;BME280;36875;49.468;11.200;2023-05-29T03:50:31;98017.53;;;20.35;39.67
50057;BME280;36875;49.468;11.200;2023-05-29T03:52:56;98023.31;;;20.34;39.35
50057;BME280;36875;49.468;11.200;2023-05-29T03:55:22;98029.59;;;20.34;39.43
50057;BME280;36875;49.468;11.200;2023-05-29T03:57:47;98028.78;;;20.34;39.43
50057;BME280;36875;49.468;11.200;2023-05-29T04:00:14;98035.38;;;20.33;39.53
50057;BME280;36875;49.468;11.200;2023-05-29T04:02:40;98033.75;;;20.32;39.44
50057;BME280;36875;49.468;11.200;2023-05-29T04:05:06;98038.13;;;20.33;39.75
50057;BME280;36875;49.468;11.200;2023-05-29T04:07:32;98045.50;;;20.32;39.53
50057;BME280;36875;49.468;11.200;2023-05-29T04:09:58;98044.09;;;20.35;39.77
50057;BME280;36875;49.468;11.200;2023-05-29T04:12:24;98040.50;;;20.34;39.54
50057;BME280;36875;49.468;11.200;2023-05-29T04:14:49;98045.97;;;20.34;39.47
50057;BME280;36875;49.468;11.200;2023-05-29T04:17:16;98062.06;;;20.36;39.49
50057;BME280;36875;49.468;11.200;2023-05-29T04:19:41;98053.06;;;20.35;39.64
50057;BME280;36875;49.468;11.200;2023-05-29T04:22:07;98062.38;;;20.34;39.59
50057;BME280;36875;49.468;11.200;2023-05-29T04:24:32;98058.06;;;20.33;39.44
50057;BME280;36875;49.468;11.200;2023-05-29T04:26:58;98057.25;;;20.33;39.74
50057;BME280;36875;49.468;11.200;2023-05-29T04:29:25;98057.84;;;20.30;39.87
50057;BME280;36875;49.468;11.200;2023-05-29T04:31:51;98065.75;;;20.31;39.92
50057;BME280;36875;49.468;11.200;2023-05-29T04:34:18;98065.25;;;20.29;39.81
50057;BME280;36875;49.468;11.200;2023-05-29T04:36:45;98072.13;;;20.27;39.81
50057;BME280;36875;49.468;11.200;2023-05-29T04:39:11;98076.31;;;20.24;39.85
50057;BME280;36875;49.468;11.200;2023-05-29T04:41:36;98078.22;;;20.23;39.91
50057;BME280;36875;49.468;11.200;2023-05-29T04:44:03;98088.03;;;20.25;39.77
50057;BME280;36875;49.468;11.200;2023-05-29T04:46:29;98088.63;;;20.21;39.47
50057;BME280;36875;49.468;11.200;2023-05-29T04:48:55;98088.84;;;20.25;39.97
50057;BME280;36875;49.468;11.200;2023-05-29T04:51:23;98098.34;;;20.28;39.92
50057;BME280;36875;49.468;11.200;2023-05-29T04:53:49;98097.72;;;20.31;39.96
50057;BME280;36875;49.468;11.200;2023-05-29T04:56:16;98099.53;;;20.35;39.78
50057;BME280;36875;49.468;11.200;2023-05-29T04:58:43;98104.41;;;20.38;40.00
50057;BME280;36875;49.468;11.200;2023-05-29T05:01:09;98103.06;;;20.36;39.82
50057;BME280;36875;49.468;11.200;2023-05-29T05:03:35;98100.03;;;20.37;39.99
50057;BME280;36875;49.468;11.200;2023-05-29T05:06:01;98100.34;;;20.36;39.88
50057;BME280;36875;49.468;11.200;2023-05-29T05:08:33;98102.56;;;20.34;39.71
50057;BME280;36875;49.468;11.200;2023-05-29T05:10:59;98107.75;;;20.35;39.85
50057;BME280;36875;49.468;11.200;2023-05-29T05:13:25;98116.75;;;20.36;39.98
50057;BME280;36875;49.468;11.200;2023-05-29T05:15:51;98113.91;;;20.41;39.50
50057;BME280;36875;49.468;11.200;2023-05-29T05:18:16;98123.09;;;20.45;39.80
50057;BME280;36875;49.468;11.200;2023-05-29T05:20:42;98131.47;;;20.49;39.75
50057;BME280;36875;49.468;11.200;2023-05-29T05:23:07;98128.44;;;20.50;39.65
50057;BME280;36875;49.468;11.200;2023-05-29T05:25:34;98133.31;;;20.53;39.93
50057;BME280;36875;49.468;11.200;2023-05-29T05:28:00;98123.66;;;20.56;39.52
50057;BME280;36875;49.468;11.200;2023-05-29T05:30:26;98125.50;;;20.60;39.59
50057;BME280;36875;49.468;11.200;2023-05-29T05:32:51;98132.28;;;20.63;39.84
50057;BME280;36875;49.468;11.200;2023-05-29T05:35:17;98131.19;;;20.64;39.53
50057;BME280;36875;49.468;11.200;2023-05-29T05:37:42;98136.50;;;20.69;39.73
50057;BME280;36875;49.468;11.200;2023-05-29T05:40:08;98134.09;;;20.68;39.53
50057;BME280;36875;49.468;11.200;2023-05-29T05:42:35;98138.31;;;20.74;39.60
50057;BME280;36875;49.468;11.200;2023-05-29T05:45:01;98144.28;;;20.76;39.52
50057;BME280;36875;49.468;11.200;2023-05-29T05:47:26;98139.31;;;20.78;39.54
50057;BME280;36875;49.468;11.200;2023-05-29T05:49:55;98151.53;;;20.80;39.58
50057;BME280;36875;49.468;11.200;2023-05-29T05:52:21;98146.91;;;20.81;39.51
50057;BME280;36875;49.468;11.200;2023-05-29T05:54:48;98152.56;;;20.85;39.33
50057;BME280;36875;49.468;11.200;2023-05-29T05:57:13;98152.25;;;20.86;39.69
50057;BME280;36875;49.468;11.200;2023-05-29T05:59:40;98154.34;;;20.89;39.37
50057;BME280;36875;49.468;11.200;2023-05-29T06:02:06;98147.75;;;20.90;39.64
50057;BME280;36875;49.468;11.200;2023-05-29T06:04:32;98151.00;;;20.92;39.29
50057;BME280;36875;49.468;11.200;2023-05-29T06:06:57;98147.94;;;20.94;39.54
50057;BME280;36875;49.468;11.200;2023-05-29T06:09:23;98151.19;;;20.96;39.32
50057;BME280;36875;49.468;11.200;2023-05-29T06:11:50;98154.41;;;20.98;39.50
50057;BME280;36875;49.468;11.200;2023-05-29T06:14:15;98156.84;;;20.99;39.49
50057;BME280;36875;49.468;11.200;2023-05-29T06:16:43;98161.19;;;21.01;39.57
50057;BME280;36875;49.468;11.200;2023-05-29T06:19:09;98155.84;;;20.95;39.39
50057;BME280;36875;49.468;11.200;2023-05-29T06:21:35;98162.19;;;21.05;39.23
50057;BME280;36875;49.468;11.200;2023-05-29T06:24:00;98166.53;;;21.06;39.41
50057;BME280;36875;49.468;11.200;2023-05-29T06:26:26;98165.41;;;21.07;39.30
50057;BME280;36875;49.468;11.200;2023-05-29T06:28:52;98163.47;;;21.07;39.36
50057;BME280;36875;49.468;11.200;2023-05-29T06:31:17;98172.97;;;21.10;39.42
50057;BME280;36875;49.468;11.200;2023-05-29T06:33:44;98162.88;;;21.10;39.20
50057;BME280;36875;49.468;11.200;2023-05-29T06:36:10;98168.53;;;21.14;39.27
50057;BME280;36875;49.468;11.200;2023-05-29T06:38:35;98168.53;;;21.14;39.23
50057;BME280;36875;49.468;11.200;2023-05-29T06:41:01;98176.41;;;21.15;39.29
50057;BME280;36875;49.468;11.200;2023-05-29T06:43:27;98170.31;;;21.18;39.35
50057;BME280;36875;49.468;11.200;2023-05-29T06:45:52;98165.63;;;21.19;39.23
50057;BME280;36875;49.468;11.200;2023-05-29T06:48:18;98164.34;;;21.16;39.31
50057;BME280;36875;49.468;11.200;2023-05-29T06:50:45;98169.69;;;21.22;39.21
50057;BME280;36875;49.468;11.200;2023-05-29T06:53:10;98171.63;;;21.21;39.02
50057;BME280;36875;49.468;11.200;2023-05-29T06:55:36;98173.22;;;21.22;39.40
50057;BME280;36875;49.468;11.200;2023-05-29T06:58:01;98179.19;;;21.24;39.38
50057;BME280;36875;49.468;11.200;2023-05-29T07:00:27;98172.13;;;21.23;39.11
50057;BME280;36875;49.468;11.200;2023-05-29T07:02:53;98176.94;;;21.26;39.26
50057;BME280;36875;49.468;11.200;2023-05-29T07:05:19;98175.34;;;21.25;39.15
50057;BME280;36875;49.468;11.200;2023-05-29T07:07:46;98174.22;;;21.26;39.07
50057;BME280;36875;49.468;11.200;2023-05-29T07:10:11;98171.81;;;21.25;39.10
50057;BME280;36875;49.468;11.200;2023-05-29T07:12:37;98175.84;;;21.27;39.17
50057;BME280;36875;49.468;11.200;2023-05-29T07:15:03;98174.72;;;21.28;39.09
50057;BME280;36875;49.468;11.200;2023-05-29T07:17:29;98175.53;;;21.29;39.38
50057;BME280;36875;49.468;11.200;2023-05-29T07:19:54;98176.03;;;21.31;39.25
50057;BME280;36875;49.468;11.200;2023-05-29T07:22:20;98178.47;;;21.32;39.27
50057;BME280;36875;49.468;11.200;2023-05-29T07:24:47;98179.25;;;21.33;39.45
50057;BME280;36875;49.468;11.200;2023-05-29T07:27:12;98174.28;;;21.35;39.45
50057;BME280;36875;49.468;11.200;2023-05-29T07:29:38;98165.38;;;21.29;39.07
50057;BME280;36875;49.468;11.200;2023-05-29T07:32:03;98177.50;;;21.37;39.59
50057;BME280;36875;49.468;11.200;2023-05-29T07:34:29;98175.25;;;21.39;39.26
50057;BME280;36875;49.468;11.200;2023-05-29T07:36:59;98178.81;;;21.40;39.36
50057;BME280;36875;49.468;11.200;2023-05-29T07:39:25;98171.41;;;21.40;39.29
50057;BME280;36875;49.468;11.200;2023-05-29T07:41:52;98172.22;;;21.41;39.36
50057;BME280;36875;49.468;11.200;2023-05-29T07:44:18;98173.00;;;21.41;39.67
50057;BME280;36875;49.468;11.200;2023-05-29T07:46:43;98176.56;;;21.42;39.80
50057;BME280;36875;49.468;11.200;2023-05-29T07:49:09;98177.69;;;21.41;39.79
50057;BME280;36875;49.468;11.200;2023-05-29T07:51:34;98174.84;;;21.46;39.46
50057;BME280;36875;49.468;11.200;2023-05-29T07:54:01;98178.06;;;21.48;39.42
50057;BME280;36875;49.468;11.200;2023-05-29T07:56:26;98175.34;;;21.48;39.48
50057;BME280;36875;49.468;11.200;2023-05-29T07:58:53;98175.81;;;21.50;39.65
50057;BME280;36875;49.468;11.200;2023-05-29T08:01:20;98170.34;;;21.50;39.68
50057;BME280;36875;49.468;11.200;2023-05-29T08:03:46;98185.38;;;21.52;39.81
50057;BME280;36875;49.468;11.200;2023-05-29T08:06:12;98178.44;;;21.55;39.59
50057;BME280;36875;49.468;11.200;2023-05-29T08:08:37;98174.59;;;21.56;39.59
50057;BME280;36875;49.468;11.200;2023-05-29T08:11:03;98176.81;;;21.54;39.86
50057;BME280;36875;49.468;11.200;2023-05-29T08:13:29;98176.19;;;21.57;39.71
50057;BME280;36875;49.468;11.200;2023-05-29T08:15:56;98178.44;;;21.55;39.38
50057;BME280;36875;49.468;11.200;2023-05-29T08:18:25;98176.50;;;21.55;39.25
50057;BME280;36875;49.468;11.200;2023-05-29T08:20:51;98178.44;;;21.55;38.77
50057;BME280;36875;49.468;11.200;2023-05-29T08:23:17;98165.69;;;21.50;38.50
50057;BME280;36875;49.468;11.200;2023-05-29T08:25:43;98177.63;;;21.54;38.54
50057;BME280;36875;49.468;11.200;2023-05-29T08:28:09;98177.63;;;21.54;38.34
50057;BME280;36875;49.468;11.200;2023-05-29T08:30:34;98172.97;;;21.55;38.10
50057;BME280;36875;49.468;11.200;2023-05-29T08:33:01;98174.59;;;21.56;37.86
50057;BME280;36875;49.468;11.200;2023-05-29T08:35:28;98170.22;;;21.55;37.75
50057;BME280;36875;49.468;11.200;2023-05-29T08:37:53;98177.31;;;21.56;37.86
50057;BME280;36875;49.468;11.200;2023-05-29T08:40:19;98175.38;;;21.56;37.64
50057;BME280;36875;49.468;11.200;2023-05-29T08:42:47;98166.03;;;21.58;37.91
50057;BME280;36875;49.468;11.200;2023-05-29T08:45:13;98173.94;;;21.59;37.39
50057;BME280;36875;49.468;11.200;2023-05-29T08:47:40;98165.72;;;21.59;37.00
50057;BME280;36875;49.468;11.200;2023-05-29T08:50:09;98161.38;;;21.58;37.18
50057;BME280;36875;49.468;11.200;2023-05-29T08:52:35;98166.88;;;21.58;37.30
50057;BME280;36875;49.468;11.200;2023-05-29T08:55:01;98161.38;;;21.58;37.39
50057;BME280;36875;49.468;11.200;2023-05-29T08:57:28;98164.13;;;21.58;36.42
50057;BME280;36875;49.468;11.200;2023-05-29T08:59:55;98151.06;;;21.55;36.01
50057;BME280;36875;49.468;11.200;2023-05-29T09:02:21;98151.66;;;21.52;34.83
50057;BME280;36875;49.468;11.200;2023-05-29T09:04:47;98154.91;;;21.54;35.18
50057;BME280;36875;49.468;11.200;2023-05-29T09:07:19;98147.50;;;21.54;34.82
50057;BME280;36875;49.468;11.200;2023-05-29T09:09:45;98153.47;;;21.56;35.07
50057;BME280;36875;49.468;11.200;2023-05-29T09:12:11;98144.13;;;21.58;35.36
50057;BME280;36875;49.468;11.200;2023-05-29T09:14:37;98144.66;;;21.60;35.58
50057;BME280;36875;49.468;11.200;2023-05-29T09:17:05;98146.25;;;21.61;35.53
50057;BME280;36875;49.468;11.200;2023-05-29T09:19:32;98138.81;;;21.61;35.68
50057;BME280;36875;49.468;11.200;2023-05-29T09:22:02;98143.31;;;21.57;35.89
50057;BME280;36875;49.468;11.200;2023-05-29T09:24:29;98139.47;;;21.58;35.99
50057;BME280;36875;49.468;11.200;2023-05-29T09:26:56;98141.25;;;21.63;36.29
50057;BME280;36875;49.468;11.200;2023-05-29T09:29:22;98151.91;;;21.64;36.28
50057;BME280;36875;49.468;11.200;2023-05-29T09:31:48;98154.31;;;21.66;36.33
50057;BME280;36875;49.468;11.200;2023-05-29T09:34:14;98150.78;;;21.65;36.33
50057;BME280;36875;49.468;11.200;2023-05-29T09:36:40;98151.91;;;21.64;36.60
50057;BME280;36875;49.468;11.200;2023-05-29T09:39:06;98154.81;;;21.68;36.87
50057;BME280;36875;49.468;11.200;2023-05-29T09:41:41;98149.34;;;21.68;36.82
50057;BME280;36875;49.468;11.200;2023-05-29T09:44:07;98145.31;;;21.65;36.86
50057;BME280;36875;49.468;11.200;2023-05-29T09:46:35;98152.56;;;21.70;37.09
50057;BME280;36875;49.468;11.200;2023-05-29T09:49:01;98146.28;;;21.69;37.22
50057;BME280;36875;49.468;11.200;2023-05-29T09:51:27;98155.28;;;21.70;36.97
50057;BME280;36875;49.468;11.200;2023-05-29T09:53:53;98150.31;;;21.72;37.34
50057;BME280;36875;49.468;11.200;2023-05-29T09:56:23;98151.75;;;21.69;37.37
50057;BME280;36875;49.468;11.200;2023-05-29T09:58:53;98143.84;;;21.68;37.18
50057;BME280;36875;49.468;11.200;2023-05-29T10:01:19;98146.47;;;21.73;37.33
50057;BME280;36875;49.468;11.200;2023-05-29T10:03:45;98140.16;;;21.72;37.64
50057;BME280;36875;49.468;11.200;2023-05-29T10:06:14;98148.38;;;21.72;37.46
50057;BME280;36875;49.468;11.200;2023-05-29T10:08:45;98152.75;;;21.73;37.74
50057;BME280;36875;49.468;11.200;2023-05-29T10:11:13;98154.38;;;21.74;37.55
50057;BME280;36875;49.468;11.200;2023-05-29T10:13:42;98142.56;;;21.74;37.79
50057;BME280;36875;49.468;11.200;2023-05-29T10:16:15;98140.66;;;21.74;37.69
50057;BME280;36875;49.468;11.200;2023-05-29T10:18:44;98137.94;;;21.74;37.85
50057;BME280;36875;49.468;11.200;2023-05-29T10:21:15;98142.25;;;21.75;38.00
50057;BME280;36875;49.468;11.200;2023-05-29T10:23:43;98144.22;;;21.75;37.92
50057;BME280;36875;49.468;11.200;2023-05-29T10:26:14;98141.16;;;21.77;37.95
50057;BME280;36875;49.468;11.200;2023-05-29T10:28:43;98135.69;;;21.77;37.92
50057;BME280;36875;49.468;11.200;2023-05-29T10:31:16;98135.69;;;21.77;38.04
50057;BME280;36875;49.468;11.200;2023-05-29T10:33:53;98132.44;;;21.74;38.09
50057;BME280;36875;49.468;11.200;2023-05-29T10:36:25;98136.78;;;21.75;38.24
50057;BME280;36875;49.468;11.200;2023-05-29T10:38:53;98133.72;;;21.77;38.34
50057;BME280;36875;49.468;11.200;2023-05-29T10:41:29;98121.31;;;21.71;38.41
50057;BME280;36875;49.468;11.200;2023-05-29T10:43:55;98123.09;;;21.75;38.46
50057;BME280;36875;49.468;11.200;2023-05-29T10:49:26;98135.38;;;21.78;38.53
50057;BME280;36875;49.468;11.200;2023-05-29T10:51:52;98133.41;;;21.79;38.48
50057;BME280;36875;49.468;11.200;2023-05-29T10:54:21;98132.28;;;21.80;38.16
50057;BME280;36875;49.468;11.200;2023-05-29T10:56:52;98128.75;;;21.79;38.56
50057;BME280;36875;49.468;11.200;2023-05-29T10:59:18;98130.69;;;21.79;38.73
50057;BME280;36875;49.468;11.200;2023-05-29T11:01:45;98132.28;;;21.80;38.80
50057;BME280;36875;49.468;11.200;2023-05-29T11:04:29;98124.06;;;21.80;38.78
50057;BME280;36875;49.468;11.200;2023-05-29T11:06:57;98119.41;;;21.80;38.85
50057;BME280;36875;49.468;11.200;2023-05-29T11:09:27;98120.53;;;21.79;38.95
50057;BME280;36875;49.468;11.200;2023-05-29T11:12:16;98124.06;;;21.80;38.74
50057;BME280;36875;49.468;11.200;2023-05-29T11:15:03;98113.09;;;21.80;38.85
50057;BME280;36875;49.468;11.200;2023-05-29T11:17:42;98114.72;;;21.81;39.07
50057;BME280;36875;49.468;11.200;2023-05-29T11:20:16;98113.94;;;21.80;39.10
50057;BME280;36875;49.468;11.200;2023-05-29T11:22:56;98117.47;;;21.81;39.00
50057;BME280;36875;49.468;11.200;2023-05-29T11:25:25;98116.34;;;21.82;39.08
50057;BME280;36875;49.468;11.200;2023-05-29T11:27:51;98111.19;;;21.80;38.86
50057;BME280;36875;49.468;11.200;2023-05-29T11:30:19;98104.41;;;21.78;38.89
50057;BME280;36875;49.468;11.200;2023-05-29T11:32:48;98106.19;;;21.82;39.11
50057;BME280;36875;49.468;11.200;2023-05-29T11:35:15;98107.00;;;21.83;39.12
50057;BME280;36875;49.468;11.200;2023-05-29T11:37:44;98105.06;;;21.83;38.96
50057;BME280;36875;49.468;11.200;2023-05-29T11:40:12;98106.69;;;21.84;38.99
50057;BME280;36875;49.468;11.200;2023-05-29T11:42:41;98106.38;;;21.86;38.92
50057;BME280;36875;49.468;11.200;2023-05-29T11:45:11;98104.44;;;21.86;38.70
50057;BME280;36875;49.468;11.200;2023-05-29T11:47:52;98091.34;;;21.83;38.70
50057;BME280;36875;49.468;11.200;2023-05-29T11:50:18;98100.91;;;21.86;38.74
50057;BME280;36875;49.468;11.200;2023-05-29T11:52:45;98111.84;;;21.86;38.58
50057;BME280;36875;49.468;11.200;2023-05-29T11:55:12;98113.44;;;21.87;38.34
50057;BME280;36875;49.468;11.200;2023-05-29T11:57:37;98106.69;;;21.84;38.39
50057;BME280;36875;49.468;11.200;2023-05-29T12:00:12;98106.69;;;21.84;38.50
50057;BME280;36875;49.468;11.200;2023-05-29T12:02:37;98109.59;;;21.88;38.19
50057;BME280;36875;49.468;11.200;2023-05-29T12:05:05;98107.97;;;21.87;38.43
50057;BME280;36875;49.468;11.200;2023-05-29T12:07:34;98108.81;;;21.87;38.49
50057;BME280;36875;49.468;11.200;2023-05-29T12:10:09;98108.28;;;21.85;38.29
50057;BME280;36875;49.468;11.200;2023-05-29T12:12:34;98109.59;;;21.88;38.25
50057;BME280;36875;49.468;11.200;2023-05-29T12:15:00;98107.66;;;21.88;38.40
50057;BME280;36875;49.468;11.200;2023-05-29T12:17:30;98104.44;;;21.86;38.19
50057;BME280;36875;49.468;11.200;2023-05-29T12:19:56;98091.84;;;21.85;38.23
50057;BME280;36875;49.468;11.200;2023-05-29T12:22:32;98090.72;;;21.86;38.13
50057;BME280;36875;49.468;11.200;2023-05-29T12:25:04;98102.50;;;21.87;38.14
50057;BME280;36875;49.468;11.200;2023-05-29T12:27:30;98096.03;;;21.83;37.93
50057;BME280;36875;49.468;11.200;2023-05-29T12:29:59;98098.94;;;21.86;38.02
50057;BME280;36875;49.468;11.200;2023-05-29T12:32:34;98097.31;;;21.85;37.96
50057;BME280;36875;49.468;11.200;2023-05-29T12:35:00;98093.00;;;21.84;37.93
50057;BME280;36875;49.468;11.200;2023-05-29T12:37:25;98097.66;;;21.84;37.89
50057;BME280;36875;49.468;11.200;2023-05-29T12:40:10;98085.72;;;21.80;37.99
50057;BME280;36875;49.468;11.200;2023-05-29T12:42:37;98096.84;;;21.83;37.85
50057;BME280;36875;49.468;11.200;2023-05-29T12:45:03;98097.66;;;21.84;37.70
50057;BME280;36875;49.468;11.200;2023-05-29T12:47:31;98096.84;;;21.83;37.76
50057;BME280;36875;49.468;11.200;2023-05-29T12:49:57;98097.66;;;21.84;37.68
50057;BME280;36875;49.468;11.200;2023-05-29T12:52:23;98089.44;;;21.84;38.12